Time;durP1;ratioP1;P1;durP2;ratioP2;P2;SDS_P1;SDS_P2;PMS_P1;PMS_P2;Temp;Humidity;BMP_temperature;BMP_pressure;BME280_temperature;BME280_humidity;BME280_pressure;Samples;Min_cycle;Max_cycle;Signal;HPM_P1;HPM_P2
2023/01/29 00:01:05;;;;;;;59.40;28.00;;;;;;;-1.46;100.00;98802.13;109147;1237;61318;-77
2023/01/29 00:03:36;;;;;;;78.20;39.10;;;;;;;-1.46;100.00;98804.30;109022;1236;72380;-78
2023/01/29 00:06:06;;;;;;;73.90;35.70;;;;;;;-1.46;100.00;98802.98;109537;1231;61124;-77
2023/01/29 00:08:33;;;;;;;57.10;25.10;;;;;;;-1.46;100.00;98803.48;108972;1231;61143;-77
2023/01/29 00:11:01;;;;;;;46.00;24.40;;;;;;;-1.45;100.00;98805.38;108800;1232;73952;-77
2023/01/29 00:13:28;;;;;;;84.00;40.20;;;;;;;-1.44;100.00;98806.67;109163;1236;69910;-78
2023/01/29 00:15:57;;;;;;;52.00;26.90;;;;;;;-1.44;100.00;98806.34;110321;1231;63730;-77
2023/01/29 00:18:24;;;;;;;54.40;26.80;;;;;;;-1.44;100.00;98805.77;109606;1233;61206;-78
2023/01/29 00:20:50;;;;;;;48.60;21.90;;;;;;;-1.41;100.00;98806.16;109590;1236;61242;-77
2023/01/29 00:23:17;;;;;;;48.70;24.20;;;;;;;-1.39;100.00;98813.21;109018;1231;61302;-77
2023/01/29 00:25:43;;;;;;;41.70;21.20;;;;;;;-1.39;100.00;98809.53;110304;1231;69698;-77
2023/01/29 00:28:10;;;;;;;45.50;21.60;;;;;;;-1.37;100.00;98808.05;109719;1231;61127;-78
2023/01/29 00:30:37;;;;;;;42.60;22.20;;;;;;;-1.36;100.00;98813.55;108948;1235;61232;-77
2023/01/29 00:33:03;;;;;;;51.40;22.90;;;;;;;-1.35;100.00;98816.04;109107;1231;61326;-79
2023/01/29 00:35:30;;;;;;;45.70;21.50;;;;;;;-1.34;100.00;98813.17;109949;1231;74443;-77
2023/01/29 00:37:57;;;;;;;42.20;21.80;;;;;;;-1.33;100.00;98816.74;109796;1231;70057;-79
2023/01/29 00:40:24;;;;;;;43.10;22.90;;;;;;;-1.38;100.00;98820.48;109185;1236;72342;-79
2023/01/29 00:45:35;;;;;;;45.40;21.20;;;;;;;-1.38;100.00;98821.86;109282;1231;60120;-79
2023/01/29 00:48:03;;;;;;;58.40;28.90;;;;;;;-1.35;100.00;98818.73;109814;1236;74905;-79
2023/01/29 00:50:29;;;;;;;58.00;30.00;;;;;;;-1.36;100.00;98820.08;109222;1236;62283;-78
2023/01/29 00:52:55;;;;;;;63.70;31.50;;;;;;;-1.37;100.00;98827.33;109143;1234;61289;-77
2023/01/29 00:55:22;;;;;;;75.70;38.50;;;;;;;-1.40;100.00;98821.71;110058;1231;59292;-77
2023/01/29 00:57:48;;;;;;;55.00;27.20;;;;;;;-1.41;100.00;98822.85;109720;1237;59255;-78
2023/01/29 01:00:16;;;;;;;54.60;27.00;;;;;;;-1.45;100.00;98822.16;109227;1237;61251;-77
2023/01/29 01:05:28;;;;;;;67.00;30.20;;;;;;;-1.52;100.00;98822.30;109592;1231;64894;-79
2023/01/29 01:07:56;;;;;;;69.80;28.70;;;;;;;-1.51;100.00;98823.09;110317;1236;61346;-77
2023/01/29 01:10:25;;;;;;;78.50;33.80;;;;;;;-1.59;100.00;98826.49;109095;1237;61220;-78
2023/01/29 01:13:01;;;;;;;51.20;22.60;;;;;;;-1.62;100.00;98826.40;108876;1231;73232;-77
2023/01/29 01:15:36;;;;;;;30.00;15.80;;;;;;;-1.61;100.00;98824.73;109964;1231;70057;-77
2023/01/29 01:18:02;;;;;;;36.50;16.20;;;;;;;-1.69;100.00;98825.81;110137;1231;72349;-79
2023/01/29 01:20:30;;;;;;;49.70;21.30;;;;;;;-1.67;100.00;98824.90;108981;1237;61211;-78
2023/01/29 01:22:56;;;;;;;35.50;17.30;;;;;;;-1.72;100.00;98826.66;108947;1232;61287;-77
2023/01/29 01:25:23;;;;;;;45.90;20.70;;;;;;;-1.74;100.00;98828.14;109662;1231;61225;-77
2023/01/29 01:27:53;;;;;;;40.80;18.90;;;;;;;-1.72;100.00;98826.12;109573;1232;71198;-77
2023/01/29 01:30:20;;;;;;;31.60;16.00;;;;;;;-1.73;100.00;98830.88;109140;1236;71481;-78
2023/01/29 01:32:46;;;;;;;39.40;19.20;;;;;;;-1.74;100.00;98834.84;108585;1234;61200;-78
2023/01/29 01:35:13;;;;;;;30.00;15.10;;;;;;;-1.70;100.00;98835.52;109957;1236;61296;-79
2023/01/29 01:37:40;;;;;;;38.80;20.50;;;;;;;-1.74;100.00;98836.08;110167;1231;74376;-79
2023/01/29 01:40:16;;;;;;;33.70;16.30;;;;;;;-1.79;100.00;98837.73;109149;1232;61334;-77
2023/01/29 01:42:44;;;;;;;33.80;18.00;;;;;;;-1.78;100.00;98834.27;109257;1236;63825;-78
2023/01/29 01:45:27;;;;;;;34.10;18.70;;;;;;;-1.80;100.00;98838.27;109397;1237;61277;-77
2023/01/29 01:47:59;;;;;;;35.60;17.40;;;;;;;-1.86;100.00;98835.85;110644;1232;61298;-77
2023/01/29 01:50:37;;;;;;;31.10;15.90;;;;;;;-1.87;100.00;98835.23;109092;1231;73316;-78
2023/01/29 01:53:06;;;;;;;31.30;15.60;;;;;;;-1.83;100.00;98841.11;108998;1231;61220;-78
2023/01/29 01:55:34;;;;;;;31.30;15.90;;;;;;;-1.82;100.00;98846.75;109754;1231;70633;-79
2023/01/29 01:58:07;;;;;;;37.60;17.90;;;;;;;-1.79;100.00;98850.95;109447;1236;61326;-78
2023/01/29 02:00:34;;;;;;;38.80;20.90;;;;;;;-1.80;100.00;98849.14;109326;1232;61207;-77
2023/01/29 02:11:39;;;;;;;27.00;13.80;;;;;;;-1.78;100.00;98847.23;109114;1231;61277;-77
2023/01/29 02:14:06;;;;;;;25.70;13.30;;;;;;;-1.75;100.00;98850.05;109018;1232;61147;-78
2023/01/29 02:16:34;;;;;;;28.80;15.00;;;;;;;-1.75;100.00;98850.54;110853;1231;74438;-79
2023/01/29 02:19:00;;;;;;;26.00;14.50;;;;;;;-1.73;100.00;98846.63;109443;1232;70799;-78
2023/01/29 02:21:50;;;;;;;25.70;12.70;;;;;;;-1.74;100.00;98838.07;109007;1231;72221;-77
2023/01/29 02:24:29;;;;;;;30.10;15.30;;;;;;;-1.75;100.00;98831.11;108864;1232;61273;-78
2023/01/29 02:26:59;;;;;;;23.20;12.70;;;;;;;-1.72;100.00;98825.43;110621;1234;61155;-77
2023/01/29 02:30:00;;;;;;;23.70;12.30;;;;;;;-1.69;100.00;98818.95;109465;1236;65799;-77
2023/01/29 02:32:31;;;;;;;22.60;11.50;;;;;;;-1.67;100.00;98811.40;109676;1231;62351;-78
2023/01/29 02:35:28;;;;;;;23.30;11.70;;;;;;;-1.65;100.00;98803.58;109077;1235;62684;-78
2023/01/29 02:38:31;;;;;;;24.90;12.80;;;;;;;-1.67;100.00;98798.11;110098;1237;61204;-78
2023/01/29 02:41:09;;;;;;;24.50;11.40;;;;;;;-1.65;100.00;98796.62;109252;1236;62304;-78
2023/01/29 02:43:57;;;;;;;22.10;12.30;;;;;;;-1.70;100.00;98781.94;109550;1231;73266;-77
2023/01/29 02:46:27;;;;;;;24.50;12.90;;;;;;;-1.68;100.00;98784.45;111078;1231;70918;-77
2023/01/29 02:48:59;;;;;;;22.50;10.80;;;;;;;-1.67;100.00;98782.66;109285;1237;63638;-78
2023/01/29 02:52:09;;;;;;;22.00;10.50;;;;;;;-1.65;100.00;98785.43;109106;1231;61240;-78
2023/01/29 02:54:48;;;;;;;20.90;9.60;;;;;;;-1.62;100.00;98794.70;109252;1232;60168;-78
2023/01/29 02:57:29;;;;;;;17.80;10.20;;;;;;;-1.62;100.00;98801.88;110743;1236;65615;-79
2023/01/29 03:00:19;;;;;;;21.50;10.60;;;;;;;-1.61;100.00;98798.63;108843;1237;61354;-77
2023/01/29 03:02:58;;;;;;;24.40;12.50;;;;;;;-1.61;100.00;98796.20;108989;1232;62661;-78
2023/01/29 03:05:31;;;;;;;19.80;11.50;;;;;;;-1.61;100.00;98797.02;109753;1232;61240;-77
2023/01/29 03:08:01;;;;;;;23.90;12.40;;;;;;;-1.62;100.00;98794.34;110359;1236;61251;-77
2023/01/29 03:10:33;;;;;;;21.50;11.20;;;;;;;-1.63;100.00;98792.63;109063;1237;75078;-77
2023/01/29 03:13:02;;;;;;;17.30;10.50;;;;;;;-1.72;100.00;98793.05;109101;1236;61279;-78
2023/01/29 03:15:50;;;;;;;30.80;18.50;;;;;;;-1.72;100.00;98786.66;109942;1232;63616;-77
2023/01/29 03:18:17;;;;;;;35.10;20.10;;;;;;;-1.77;100.00;98783.17;109840;1236;61197;-78
2023/01/29 03:20:49;;;;;;;27.30;13.60;;;;;;;-1.76;100.00;98792.14;109032;1232;61234;-78
2023/01/29 03:23:22;;;;;;;28.00;12.90;;;;;;;-1.82;100.00;98795.61;108987;1233;74344;-77
2023/01/29 03:34:17;;;;;;;21.30;9.50;;;;;;;-1.82;100.00;98823.63;109003;1237;61134;-78
2023/01/29 03:36:56;;;;;;;19.90;10.30;;;;;;;-1.83;100.00;98820.92;111315;1231;74379;-78
2023/01/29 03:39:27;;;;;;;19.00;9.70;;;;;;;-1.92;100.00;98817.57;109103;1238;61290;-77
2023/01/29 03:42:20;;;;;;;17.90;9.50;;;;;;;-1.95;100.00;98817.07;109033;1238;72832;-78
2023/01/29 03:44:53;;;;;;;16.60;9.50;;;;;;;-2.00;100.00;98822.23;109008;1237;61254;-77
2023/01/29 03:47:22;;;;;;;24.30;13.30;;;;;;;-2.02;100.00;98819.48;111068;1232;61316;-78
2023/01/29 03:49:58;;;;;;;20.90;11.00;;;;;;;-2.08;100.00;98817.27;109546;1237;65868;-77
2023/01/29 03:53:00;;;;;;;24.10;12.90;;;;;;;-2.07;100.00;98819.52;109147;1232;70941;-77
2023/01/29 03:55:34;;;;;;;27.30;15.10;;;;;;;-2.15;100.00;98814.81;109266;1235;64208;-77
2023/01/29 03:58:08;;;;;;;29.60;13.70;;;;;;;-2.29;100.00;98816.42;109556;1232;61289;-77
2023/01/29 04:00:39;;;;;;;21.60;12.70;;;;;;;-2.42;100.00;98815.27;108598;1233;61188;-77
2023/01/29 04:03:13;;;;;;;22.70;12.60;;;;;;;-2.50;100.00;98817.48;108867;1237;65615;-77
2023/01/29 04:05:50;;;;;;;21.80;11.90;;;;;;;-2.53;100.00;98815.84;110181;1232;62303;-77
2023/01/29 04:08:22;;;;;;;30.10;14.80;;;;;;;-2.57;100.00;98818.12;109363;1237;63843;-77
2023/01/29 04:10:48;;;;;;;26.70;13.60;;;;;;;-2.60;100.00;98813.25;109129;1237;61335;-77
2023/01/29 04:13:14;;;;;;;22.90;12.80;;;;;;;-2.59;100.00;98812.74;108569;1238;61304;-78
2023/01/29 04:15:47;;;;;;;30.20;14.00;;;;;;;-2.58;100.00;98807.30;109761;1232;61331;-79
2023/01/29 04:18:14;;;;;;;25.60;12.20;;;;;;;-2.54;100.00;98807.66;109919;1232;70810;-77
2023/01/29 04:20:40;;;;;;;21.20;12.90;;;;;;;-2.53;100.00;98802.07;109251;1237;72431;-77
2023/01/29 04:23:21;;;;;;;20.80;11.90;;;;;;;-2.57;100.00;98802.66;109156;1235;61201;-78
2023/01/29 04:26:11;;;;;;;20.20;11.10;;;;;;;-2.58;100.00;98800.51;110188;1232;61186;-79
2023/01/29 04:29:03;;;;;;;22.60;11.40;;;;;;;-2.60;100.00;98802.15;109189;1236;65646;-77
2023/01/29 04:31:33;;;;;;;20.80;12.00;;;;;;;-2.66;100.00;98797.80;109039;1237;62684;-77
2023/01/29 04:34:15;;;;;;;25.20;11.40;;;;;;;-2.63;100.00;98798.80;108834;1234;72924;-78
2023/01/29 04:37:11;;;;;;;34.60;17.10;;;;;;;-2.64;100.00;98797.40;110896;1232;60245;-79
2023/01/29 04:39:52;;;;;;;31.30;19.30;;;;;;;-2.66;100.00;98803.46;109070;1236;61223;-78
2023/01/29 04:42:50;;;;;;;27.80;13.20;;;;;;;-2.67;100.00;98807.67;108999;1238;73314;-77
2023/01/29 04:45:32;;;;;;;27.10;14.40;;;;;;;-2.73;100.00;98811.46;109327;1232;62281;-77
2023/01/29 04:48:10;;;;;;;21.00;11.30;;;;;;;-2.71;100.00;98811.55;109866;1237;63812;-78
2023/01/29 04:50:43;;;;;;;25.60;12.10;;;;;;;-2.71;100.00;98808.33;109109;1232;61309;-77
2023/01/29 04:53:24;;;;;;;23.70;10.80;;;;;;;-2.69;100.00;98810.60;109100;1232;61204;-78
2023/01/29 04:55:57;;;;;;;20.70;9.90;;;;;;;-2.64;100.00;98797.44;110384;1232;64725;-77
2023/01/29 04:58:34;;;;;;;26.40;11.40;;;;;;;-2.59;100.00;98783.05;109771;1237;62100;-77
2023/01/29 05:01:01;;;;;;;20.50;10.90;;;;;;;-2.52;100.00;98782.33;108878;1238;71270;-77
2023/01/29 05:03:27;;;;;;;22.90;12.60;;;;;;;-2.49;100.00;98780.53;109051;1238;61238;-77
2023/01/29 05:05:54;;;;;;;18.40;9.70;;;;;;;-2.48;100.00;98773.98;109786;1232;61302;-77
2023/01/29 05:08:22;;;;;;;21.20;9.70;;;;;;;-2.48;100.00;98772.64;110230;1232;72368;-77
2023/01/29 05:10:49;;;;;;;15.90;9.20;;;;;;;-2.46;100.00;98771.38;108923;1235;70074;-77
2023/01/29 05:13:15;;;;;;;20.20;10.80;;;;;;;-2.45;100.00;98771.76;109367;1232;71320;-77
2023/01/29 05:15:45;;;;;;;46.10;24.10;;;;;;;-2.50;100.00;98765.62;109302;1232;61279;-78
2023/01/29 05:18:11;;;;;;;29.10;15.30;;;;;;;-2.67;100.00;98754.84;110197;1237;59311;-78
2023/01/29 05:20:39;;;;;;;22.70;13.40;;;;;;;-2.86;100.00;98752.41;109400;1236;61302;-78
2023/01/29 05:23:16;;;;;;;23.10;11.40;;;;;;;-2.86;100.00;98749.20;108634;1238;70950;-78
2023/01/29 05:25:42;;;;;;;25.10;13.70;;;;;;;-2.84;100.00;98741.35;110049;1232;63788;-77
2023/01/29 05:28:15;;;;;;;23.60;12.40;;;;;;;-2.82;100.00;98747.23;110202;1232;61361;-77
2023/01/29 05:30:46;;;;;;;29.60;14.80;;;;;;;-2.84;100.00;98751.14;108985;1238;61122;-77
2023/01/29 05:33:17;;;;;;;52.60;20.90;;;;;;;-2.80;100.00;98753.88;109133;1232;73342;-77
2023/01/29 05:35:43;;;;;;;29.50;15.50;;;;;;;-2.78;100.00;98754.85;109695;1232;61290;-77
2023/01/29 05:38:10;;;;;;;25.00;12.30;;;;;;;-2.79;100.00;98754.10;110370;1232;61165;-77
2023/01/29 05:40:36;;;;;;;29.20;12.30;;;;;;;-2.79;100.00;98753.23;109371;1232;62142;-78
2023/01/29 05:43:03;;;;;;;20.30;10.80;;;;;;;-2.77;100.00;98763.10;109081;1236;61242;-79
2023/01/29 05:45:31;;;;;;;23.20;12.30;;;;;;;-2.78;100.00;98761.48;109549;1232;73841;-77
2023/01/29 05:47:57;;;;;;;20.10;10.80;;;;;;;-2.78;100.00;98761.09;110302;1235;69655;-78
2023/01/29 05:50:24;;;;;;;21.80;10.70;;;;;;;-2.81;100.00;98770.26;109064;1232;71300;-79
2023/01/29 05:53:00;;;;;;;23.80;12.70;;;;;;;-2.89;100.00;98772.36;109064;1236;61677;-78
2023/01/29 05:55:28;;;;;;;18.60;10.60;;;;;;;-2.95;100.00;98779.02;109891;1232;59172;-79
2023/01/29 05:57:55;;;;;;;18.70;12.30;;;;;;;-3.02;99.99;98788.95;110177;1238;74385;-78
2023/01/29 06:00:22;;;;;;;16.00;7.90;;;;;;;-3.04;100.00;98793.77;109058;1236;61163;-77
2023/01/29 06:02:48;;;;;;;19.00;10.60;;;;;;;-3.06;99.67;98799.98;108677;1238;73081;-78
2023/01/29 06:05:15;;;;;;;18.20;10.80;;;;;;;-3.15;98.57;98807.47;109062;1232;61188;-77
2023/01/29 06:07:44;;;;;;;12.80;7.50;;;;;;;-3.19;98.90;98812.70;110108;1232;61440;-79
2023/01/29 06:10:14;;;;;;;16.10;8.80;;;;;;;-3.16;100.00;98808.31;109043;1238;74096;-78
2023/01/29 06:12:41;;;;;;;21.70;9.70;;;;;;;-3.15;100.00;98817.95;108931;1236;69911;-77
2023/01/29 06:15:08;;;;;;;12.50;6.60;;;;;;;-3.18;99.02;98820.58;109265;1232;71513;-78
2023/01/29 06:17:34;;;;;;;14.80;7.40;;;;;;;-3.20;98.74;98827.75;110608;1232;60064;-76
2023/01/29 06:20:02;;;;;;;10.10;5.60;;;;;;;-3.18;99.91;98830.24;109067;1237;61348;-78
2023/01/29 06:22:28;;;;;;;12.70;6.40;;;;;;;-3.18;99.40;98831.38;108993;1236;74421;-77
2023/01/29 06:24:54;;;;;;;11.70;5.70;;;;;;;-3.18;99.48;98833.83;109285;1232;63371;-78
2023/01/29 06:27:21;;;;;;;13.50;7.20;;;;;;;-3.16;100.00;98836.45;111114;1237;61369;-79
2023/01/29 06:29:47;;;;;;;11.70;6.30;;;;;;;-3.23;98.23;98837.20;108993;1239;61241;-77
2023/01/29 06:32:14;;;;;;;10.90;6.00;;;;;;;-3.22;98.46;98841.94;109562;1232;61313;-77
2023/01/29 06:34:40;;;;;;;10.00;4.60;;;;;;;-3.31;96.91;98845.39;109152;1236;61385;-78
2023/01/29 06:37:07;;;;;;;10.70;6.40;;;;;;;-3.32;96.61;98844.79;110679;1236;61137;-77
2023/01/29 06:39:33;;;;;;;9.40;5.50;;;;;;;-3.35;96.27;98845.25;109128;1237;61264;-77
2023/01/29 06:42:00;;;;;;;9.70;5.60;;;;;;;-3.31;97.71;98843.51;109019;1232;61254;-78
2023/01/29 06:44:26;;;;;;;12.50;5.90;;;;;;;-3.30;98.07;98848.27;109233;1237;61217;-78
2023/01/29 06:46:52;;;;;;;8.60;5.40;;;;;;;-3.25;98.94;98850.50;111095;1236;61207;-79
2023/01/29 06:49:19;;;;;;;11.50;7.10;;;;;;;-3.22;98.24;98852.91;109200;1237;61233;-77
2023/01/29 06:51:45;;;;;;;24.30;11.80;;;;;;;-3.19;98.84;98856.04;109065;1232;61309;-77
2023/01/29 06:54:12;;;;;;;19.20;10.30;;;;;;;-3.16;98.80;98856.90;109506;1232;61276;-78
2023/01/29 06:56:38;;;;;;;18.30;9.60;;;;;;;-3.15;98.67;98855.44;111091;1232;58983;-79
2023/01/29 06:59:05;;;;;;;42.40;19.50;;;;;;;-3.14;98.66;98854.08;109413;1237;61204;-78
2023/01/29 07:01:31;;;;;;;33.70;17.50;;;;;;;-3.12;98.84;98857.77;108957;1232;61327;-78
2023/01/29 07:03:57;;;;;;;51.70;23.90;;;;;;;-3.13;99.44;98855.85;109063;1231;59341;-77
2023/01/29 07:06:27;;;;;;;26.40;14.00;;;;;;;-3.19;97.66;98864.20;110787;1232;61190;-77
2023/01/29 07:08:54;;;;;;;46.30;20.50;;;;;;;-3.18;98.52;98865.41;109116;1238;61183;-77
2023/01/29 07:11:21;;;;;;;24.80;9.70;;;;;;;-3.14;99.32;98863.23;109048;1233;73268;-76
2023/01/29 07:13:47;;;;;;;23.10;13.90;;;;;;;-3.21;97.04;98864.61;109286;1235;61303;-78
2023/01/29 07:16:13;;;;;;;24.20;12.00;;;;;;;-3.19;97.96;98858.73;110150;1232;61313;-78
2023/01/29 07:18:40;;;;;;;21.90;10.30;;;;;;;-3.14;98.88;98863.39;109485;1237;61222;-77
2023/01/29 07:21:06;;;;;;;155.60;82.60;;;;;;;-3.14;98.28;98869.05;109128;1232;61316;-76
2023/01/29 07:23:33;;;;;;;52.10;36.00;;;;;;;-3.10;98.12;98871.02;109258;1232;61184;-78
2023/01/29 07:26:02;;;;;;;12.80;9.20;;;;;;;-3.15;97.05;98866.34;110676;1232;61120;-77
2023/01/29 07:28:28;;;;;;;92.90;75.50;;;;;;;-3.11;97.85;98866.98;109426;1237;72435;-78
2023/01/29 07:30:58;;;;;;;22.10;15.00;;;;;;;-3.06;97.72;98869.48;109251;1232;61167;-78
2023/01/29 07:33:24;;;;;;;16.20;11.70;;;;;;;-3.00;97.51;98868.20;109080;1232;61203;-76
2023/01/29 07:35:54;;;;;;;17.40;10.80;;;;;;;-2.96;96.23;98863.02;110169;1237;61143;-78
2023/01/29 07:38:20;;;;;;;188.30;83.00;;;;;;;-2.87;96.88;98863.39;110214;1232;69688;-78
2023/01/29 07:40:47;;;;;;;30.80;22.50;;;;;;;-2.90;95.60;98863.55;109153;1236;71366;-78
2023/01/29 07:43:15;;;;;;;13.40;8.60;;;;;;;-2.86;96.39;98864.91;109210;1232;61231;-76
2023/01/29 07:45:41;;;;;;;27.20;20.50;;;;;;;-2.80;96.72;98862.64;110236;1236;59800;-78
2023/01/29 07:48:09;;;;;;;16.70;11.10;;;;;;;-2.78;96.77;98861.13;110100;1236;61311;-76
2023/01/29 07:50:36;;;;;;;29.50;25.80;;;;;;;-2.74;97.58;98861.42;108977;1237;69796;-78
2023/01/29 07:53:03;;;;;;;11.40;8.70;;;;;;;-2.72;97.73;98867.23;109268;1232;72439;-76
2023/01/29 07:55:29;;;;;;;9.80;6.30;;;;;;;-2.64;97.97;98865.64;109026;1236;61305;-78
2023/01/29 07:58:00;;;;;;;12.40;6.80;;;;;;;-2.60;97.60;98862.08;109754;1237;61181;-77
2023/01/29 08:00:27;;;;;;;27.20;16.70;;;;;;;-2.57;97.23;98865.29;109113;1237;74387;-78
2023/01/29 08:03:01;;;;;;;15.80;7.70;;;;;;;-2.52;97.65;98870.73;109096;1237;69923;-77
2023/01/29 08:05:27;;;;;;;18.80;9.00;;;;;;;-2.49;97.22;98869.33;109722;1232;63843;-77
2023/01/29 08:07:53;;;;;;;18.70;9.50;;;;;;;-2.49;96.24;98873.36;110185;1237;61318;-77
2023/01/29 08:10:20;;;;;;;14.80;8.40;;;;;;;-2.40;97.35;98879.09;109100;1236;61146;-76
2023/01/29 08:12:46;;;;;;;24.40;11.90;;;;;;;-2.31;98.21;98887.63;109191;1232;61238;-78
2023/01/29 08:15:13;;;;;;;19.00;11.50;;;;;;;-2.27;98.73;98888.15;109386;1232;61287;-77
2023/01/29 08:17:39;;;;;;;19.20;10.80;;;;;;;-2.30;97.80;98895.05;110174;1232;61328;-78
2023/01/29 08:20:06;;;;;;;20.30;9.50;;;;;;;-2.27;98.23;98895.34;109007;1237;61266;-78
2023/01/29 08:22:32;;;;;;;15.50;9.20;;;;;;;-2.24;98.71;98896.94;109107;1237;61307;-78
2023/01/29 08:24:59;;;;;;;35.80;16.40;;;;;;;-2.31;98.52;98896.29;109414;1236;61592;-77
2023/01/29 08:27:25;;;;;;;34.20;20.60;;;;;;;-2.31;97.84;98903.14;110635;1232;61344;-78
2023/01/29 08:29:52;;;;;;;19.80;12.80;;;;;;;-2.35;96.46;98905.07;108787;1235;61327;-77
2023/01/29 08:32:18;;;;;;;14.70;8.40;;;;;;;-2.29;97.37;98906.00;109304;1236;61373;-78
2023/01/29 08:34:44;;;;;;;19.90;12.50;;;;;;;-2.19;98.22;98911.04;109391;1232;61735;-78
2023/01/29 08:37:11;;;;;;;11.70;8.20;;;;;;;-2.10;98.18;98915.30;111182;1236;61097;-78
2023/01/29 08:39:37;;;;;;;18.00;11.00;;;;;;;-2.12;95.64;98918.65;109352;1232;61315;-78
2023/01/29 08:42:04;;;;;;;20.40;12.10;;;;;;;-1.99;97.69;98924.31;109232;1232;61258;-76
2023/01/29 08:44:30;;;;;;;80.70;70.50;;;;;;;-2.02;96.50;98930.69;109262;1237;61248;-78
2023/01/29 08:46:56;;;;;;;65.50;58.80;;;;;;;-2.12;96.07;98934.64;109806;1237;61497;-78
2023/01/29 08:49:23;;;;;;;26.30;22.30;;;;;;;-2.23;95.23;98938.41;109186;1237;61319;-76
2023/01/29 08:51:53;;;;;;;106.90;77.60;;;;;;;-2.20;96.13;98939.99;109111;1237;61207;-78
2023/01/29 08:54:20;;;;;;;84.40;65.30;;;;;;;-2.24;95.55;98941.17;108880;1238;62674;-78
2023/01/29 08:56:46;;;;;;;27.50;20.00;;;;;;;-2.22;95.58;98937.79;110839;1235;61098;-78
2023/01/29 08:59:12;;;;;;;21.80;12.00;;;;;;;-2.06;96.90;98939.84;109110;1236;61094;-78
2023/01/29 09:01:39;;;;;;;19.80;11.10;;;;;;;-2.02;97.27;98933.42;109120;1237;123053;-78
2023/01/29 09:04:06;;;;;;;18.80;12.40;;;;;;;-1.96;96.86;98932.27;109160;1232;61262;-77
2023/01/29 09:06:32;;;;;;;55.40;33.40;;;;;;;-1.97;95.22;98930.27;110514;1236;61280;-79
2023/01/29 09:08:59;;;;;;;113.30;68.40;;;;;;;-1.94;95.04;98930.83;109593;1232;61188;-77
2023/01/29 09:11:25;;;;;;;98.00;55.20;;;;;;;-1.87;95.31;98926.05;109346;1237;61197;-78
2023/01/29 09:13:52;;;;;;;86.40;55.30;;;;;;;-1.76;95.00;98919.77;109002;1231;73328;-78
2023/01/29 09:16:20;;;;;;;36.10;21.10;;;;;;;-1.63;95.93;98914.54;110572;1232;61130;-77
2023/01/29 09:18:47;;;;;;;27.50;16.60;;;;;;;-1.51;96.21;98906.05;109098;1237;72072;-76
2023/01/29 09:21:13;;;;;;;30.50;17.10;;;;;;;-1.47;93.84;98905.71;109005;1231;61210;-78
2023/01/29 09:23:40;;;;;;;21.00;13.20;;;;;;;-1.39;94.03;98909.10;108963;1236;61687;-77
2023/01/29 09:26:06;;;;;;;22.40;11.90;;;;;;;-1.32;96.44;98902.54;110378;1237;61170;-77
2023/01/29 09:28:33;;;;;;;35.40;12.30;;;;;;;-1.39;96.51;98899.66;110126;1232;69242;-77
2023/01/29 09:31:01;;;;;;;20.60;10.30;;;;;;;-1.42;96.59;98903.39;109243;1231;61268;-77
2023/01/29 09:33:28;;;;;;;18.30;11.10;;;;;;;-1.57;95.94;98898.04;108997;1237;61341;-77
2023/01/29 09:35:54;;;;;;;23.40;14.20;;;;;;;-1.67;96.07;98897.80;110229;1236;61226;-77
2023/01/29 09:38:21;;;;;;;21.30;10.60;;;;;;;-1.78;96.11;98894.05;110143;1231;61195;-77
2023/01/29 09:40:50;;;;;;;40.70;18.40;;;;;;;-1.83;95.90;98883.98;109232;1237;61248;-78
2023/01/29 09:43:19;;;;;;;35.60;20.20;;;;;;;-1.75;96.24;98880.05;109167;1231;72381;-77
2023/01/29 09:46:12;;;;;;;25.20;12.30;;;;;;;-1.74;95.78;98877.44;109692;1233;61325;-77
2023/01/29 09:48:38;;;;;;;22.30;13.60;;;;;;;-1.72;95.03;98878.95;109044;1236;61447;-77
2023/01/29 09:51:17;;;;;;;23.40;11.70;;;;;;;-1.75;94.09;98878.09;108889;1232;73386;-76
2023/01/29 09:53:52;;;;;;;29.20;13.10;;;;;;;-1.70;94.87;98874.33;108873;1244;71025;-76
2023/01/29 09:56:20;;;;;;;28.40;15.90;;;;;;;-1.62;94.75;98874.73;109743;1231;71402;-77
2023/01/29 09:58:46;;;;;;;31.80;15.80;;;;;;;-1.55;93.42;98872.64;109795;1236;61143;-76
2023/01/29 10:01:16;;;;;;;21.70;11.30;;;;;;;-1.43;94.54;98867.17;108804;1238;61315;-78
2023/01/29 10:04:05;;;;;;;22.10;10.20;;;;;;;-1.38;93.09;98856.64;109325;1231;74409;-77
2023/01/29 10:06:41;;;;;;;32.50;13.40;;;;;;;-1.35;93.78;98843.23;110934;1231;69795;-78
2023/01/29 10:09:24;;;;;;;16.30;11.20;;;;;;;-1.28;93.86;98837.77;109332;1237;63130;-77
2023/01/29 10:12:12;;;;;;;14.90;9.00;;;;;;;-1.19;93.44;98829.77;109213;1231;61249;-77
2023/01/29 10:14:44;;;;;;;22.60;12.10;;;;;;;-1.21;91.89;98827.60;109271;1232;61142;-77
2023/01/29 10:17:30;;;;;;;22.50;13.00;;;;;;;-1.27;92.13;98825.24;111479;1232;73361;-78
2023/01/29 10:20:08;;;;;;;21.40;11.30;;;;;;;-1.23;91.85;98824.86;109361;1244;61205;-78
2023/01/29 10:22:41;;;;;;;13.30;7.40;;;;;;;-1.26;90.33;98825.60;109114;1231;72460;-78
2023/01/29 10:25:10;;;;;;;15.60;9.40;;;;;;;-1.19;90.73;98818.17;109260;1237;61151;-76
2023/01/29 10:27:39;;;;;;;15.00;9.10;;;;;;;-1.07;90.78;98809.63;110530;1237;61236;-77
2023/01/29 10:30:11;;;;;;;14.60;8.30;;;;;;;-0.82;90.28;98805.54;109343;1237;74385;-79
2023/01/29 10:32:37;;;;;;;14.10;7.80;;;;;;;-0.62;90.21;98807.65;109109;1231;61328;-77
2023/01/29 10:35:26;;;;;;;18.90;9.30;;;;;;;-0.53;89.71;98808.89;108991;1232;61210;-78
2023/01/29 10:37:53;;;;;;;;;;;;;;;-0.66;88.21;98804.05;109379;1237;61235;-77
2023/01/29 10:40:21;;;;;;;13.30;6.30;;;;;;;-0.73;87.73;98802.46;109216;1232;61293;-78
2023/01/29 10:42:56;;;;;;;11.20;6.70;;;;;;;-0.82;86.32;98799.33;108828;1232;74611;-76
2023/01/29 10:45:41;;;;;;;13.10;7.50;;;;;;;-0.87;87.64;98800.58;109916;1231;61242;-77
2023/01/29 10:48:40;;;;;;;11.20;7.30;;;;;;;-0.88;87.34;98800.69;110524;1237;72441;-78
2023/01/29 10:51:13;;;;;;;12.60;7.50;;;;;;;-0.88;87.85;98796.44;108802;1237;61210;-78
2023/01/29 10:54:06;;;;;;;12.40;7.00;;;;;;;-0.89;88.20;98791.96;108933;1231;61366;-77
2023/01/29 10:56:42;;;;;;;24.40;12.20;;;;;;;-0.87;87.96;98781.87;110736;1231;74486;-78
2023/01/29 10:59:24;;;;;;;13.20;6.80;;;;;;;-0.76;88.31;98770.73;109558;1231;61184;-78
2023/01/29 11:01:50;;;;;;;11.40;7.50;;;;;;;-0.64;88.63;98765.16;109049;1232;72403;-78
2023/01/29 11:04:17;;;;;;;11.70;6.10;;;;;;;-0.64;87.67;98756.44;109359;1234;61179;-78
2023/01/29 11:06:43;;;;;;;23.10;12.10;;;;;;;-0.65;87.45;98748.61;111079;1231;61169;-77
2023/01/29 11:09:09;;;;;;;100.10;44.50;;;;;;;-0.73;87.45;98735.19;109090;1232;61328;-78
2023/01/29 11:11:49;;;;;;;55.60;33.30;;;;;;;-0.72;88.26;98736.50;109111;1231;61319;-78
2023/01/29 11:14:38;;;;;;;170.40;99.10;;;;;;;-0.68;88.59;98732.95;108791;1235;71382;-77
2023/01/29 11:17:04;;;;;;;33.40;19.40;;;;;;;-0.69;88.16;98726.73;111111;1231;61339;-78
2023/01/29 11:19:39;;;;;;;43.90;20.80;;;;;;;-0.71;88.20;98716.11;109205;1232;59322;-77
2023/01/29 11:22:14;;;;;;;55.00;26.20;;;;;;;-0.69;87.22;98708.77;109828;1238;74453;-76
2023/01/29 11:24:40;;;;;;;90.50;39.10;;;;;;;-0.71;87.92;98700.21;109267;1236;62034;-77
2023/01/29 11:27:15;;;;;;;57.60;24.40;;;;;;;-0.80;87.45;98699.23;111003;1232;72447;-77
2023/01/29 11:29:45;;;;;;;41.10;20.40;;;;;;;-0.88;87.85;98694.91;109022;1238;61191;-76
2023/01/29 11:32:33;;;;;;;27.00;13.80;;;;;;;-0.92;86.83;98685.04;108529;1239;61201;-79
2023/01/29 11:35:09;;;;;;;18.50;10.70;;;;;;;-0.90;87.07;98684.29;109275;1231;74432;-77
2023/01/29 11:37:39;;;;;;;46.40;19.30;;;;;;;-0.83;87.48;98676.95;110503;1232;69806;-77
2023/01/29 11:40:18;;;;;;;42.80;18.10;;;;;;;-0.82;87.58;98678.02;108749;1232;63831;-77
2023/01/29 11:42:45;;;;;;;39.40;19.00;;;;;;;-0.97;86.38;98673.52;109323;1237;61134;-79
2023/01/29 11:45:28;;;;;;;34.90;19.50;;;;;;;-1.04;86.62;98673.65;109027;1232;61149;-77
2023/01/29 11:47:55;;;;;;;31.60;16.30;;;;;;;-1.09;86.61;98671.27;110331;1231;74756;-79